createdAt,value
2018-12-03T00:00:15.581Z,99561.08
2018-12-03T00:02:44.899Z,99557.53
2018-12-03T00:05:14.196Z,99560.23
2018-12-03T00:07:43.492Z,99558.66
2018-12-03T00:12:44.996Z,99568.91
2018-12-03T00:15:14.324Z,99560.37
2018-12-03T00:17:46.936Z,99567.52
2018-12-03T00:20:21.914Z,99571.68
2018-12-03T00:22:51.244Z,99569.33
2018-12-03T00:25:20.563Z,99565.01
2018-12-03T00:27:53.368Z,99570.17
2018-12-03T00:30:22.740Z,99566.00
2018-12-03T00:32:52.117Z,99563.23
2018-12-03T00:35:21.428Z,99565.20
2018-12-03T00:37:50.748Z,99562.43
2018-12-03T00:40:20.070Z,99566.59
2018-12-03T00:42:49.424Z,99560.05
2018-12-03T00:45:18.719Z,99555.11
2018-12-03T00:47:48.034Z,99557.53
2018-12-03T00:50:17.357Z,99555.95
2018-12-03T00:52:46.681Z,99546.86
2018-12-03T00:55:15.983Z,99555.53
2018-12-03T00:57:45.346Z,99559.11
2018-12-03T01:00:14.645Z,99550.59
2018-12-03T01:02:43.975Z,99551.02
2018-12-03T01:05:13.268Z,99548.59
2018-12-03T01:07:42.603Z,99552.17
2018-12-03T01:10:11.987Z,99550.59
2018-12-03T01:12:42.181Z,99551.02
2018-12-03T01:15:11.525Z,99558.14
2018-12-03T01:17:40.819Z,99558.95
2018-12-03T01:20:13.494Z,99571.03
2018-12-03T01:22:42.856Z,99553.98
2018-12-03T01:25:12.164Z,99556.14
2018-12-03T01:30:17.203Z,99557.53
2018-12-03T01:32:46.544Z,99549.41
2018-12-03T01:35:15.873Z,99553.98
2018-12-03T01:37:42.674Z,99548.66
2018-12-03T01:45:46.591Z,99548.05
2018-12-03T01:48:15.925Z,99545.11
2018-12-03T01:50:45.245Z,99553.85
2018-12-03T01:53:14.600Z,99548.53
2018-12-03T01:55:43.923Z,99547.92
2018-12-03T01:58:13.521Z,99549.91
2018-12-03T02:00:42.911Z,99540.98
2018-12-03T02:03:12.233Z,99540.41
2018-12-03T02:05:41.533Z,99534.86
2018-12-03T02:08:10.873Z,99542.20
2018-12-03T02:13:08.891Z,99542.79
2018-12-03T02:15:38.257Z,99537.86
2018-12-03T02:18:07.650Z,99544.98
2018-12-03T02:20:37.012Z,99539.66
2018-12-03T02:23:06.355Z,99547.37
2018-12-03T02:25:35.673Z,99548.98
2018-12-03T02:28:05.003Z,99544.02
2018-12-03T02:30:34.333Z,99536.50
2018-12-03T02:33:03.686Z,99535.30
2018-12-03T02:35:33.016Z,99524.83
2018-12-03T02:38:02.346Z,99524.60
2018-12-03T02:40:31.665Z,99522.41
2018-12-03T02:43:00.995Z,99520.02
2018-12-03T02:45:30.311Z,99520.66
2018-12-03T02:47:59.675Z,99519.47
2018-12-03T02:50:28.980Z,99524.62
2018-12-03T02:52:58.308Z,99520.44
2018-12-03T02:55:27.634Z,99515.86
2018-12-03T02:57:56.954Z,99520.61
2018-12-03T03:00:26.280Z,99519.44
2018-12-03T03:02:55.603Z,99521.99
2018-12-03T03:05:24.901Z,99518.45
2018-12-03T03:07:54.234Z,99520.02
2018-12-03T03:10:23.550Z,99520.99
2018-12-03T03:12:52.893Z,99515.26
2018-12-03T03:15:22.214Z,99519.61
2018-12-03T03:17:51.567Z,99518.80
2018-12-03T03:20:20.846Z,99514.06
2018-12-03T03:22:50.154Z,99511.52
2018-12-03T03:25:19.473Z,99513.48
2018-12-03T03:27:48.768Z,99505.97
2018-12-03T03:30:18.088Z,99511.31
2018-12-03T03:32:47.478Z,99510.95
2018-12-03T03:35:16.816Z,99507.97
2018-12-03T03:37:46.146Z,99510.73
2018-12-03T03:40:18.736Z,99506.74
2018-12-03T03:42:48.945Z,99500.61
2018-12-03T03:45:22.612Z,99500.20
2018-12-03T03:47:51.878Z,99507.13
2018-12-03T03:50:21.216Z,99508.10
2018-12-03T03:52:50.506Z,99500.36
2018-12-03T03:55:19.821Z,99488.50
2018-12-03T03:57:49.138Z,99493.08
2018-12-03T04:00:18.496Z,99497.01
2018-12-03T04:02:47.833Z,99497.23
2018-12-03T04:05:17.190Z,99504.58
2018-12-03T04:07:47.186Z,99494.88
2018-12-03T04:10:17.019Z,99498.00
2018-12-03T04:12:47.394Z,99495.84
2018-12-03T04:15:17.531Z,99497.03
2018-12-03T04:17:46.869Z,99497.26
2018-12-03T04:20:20.124Z,99495.90
2018-12-03T04:25:42.125Z,99492.73
2018-12-03T04:28:11.455Z,99487.39
2018-12-03T04:30:40.769Z,99479.07
2018-12-03T04:33:12.403Z,99476.46
2018-12-03T04:35:41.783Z,99470.89
2018-12-03T04:38:11.174Z,99462.73
2018-12-03T04:40:40.522Z,99460.77
2018-12-03T04:43:09.809Z,99458.58
2018-12-03T04:45:39.146Z,99468.67
2018-12-03T04:48:08.435Z,99466.48
2018-12-03T04:50:37.749Z,99460.55
2018-12-03T04:53:07.080Z,99459.16
2018-12-03T04:55:36.422Z,99455.81
2018-12-03T04:58:05.807Z,99464.12
2018-12-03T05:00:35.122Z,99452.45
2018-12-03T05:03:04.414Z,99452.87
2018-12-03T05:05:33.717Z,99454.67
2018-12-03T05:08:03.010Z,99451.89
2018-12-03T05:10:32.316Z,99449.31
2018-12-03T05:13:01.629Z,99454.70
2018-12-03T05:15:30.995Z,99449.73
2018-12-03T05:18:00.319Z,99453.91
2018-12-03T05:20:29.612Z,99453.16
2018-12-03T05:22:58.912Z,99448.61
2018-12-03T05:25:30.185Z,99441.28
2018-12-03T05:27:59.530Z,99437.93
2018-12-03T05:30:28.825Z,99432.97
2018-12-03T05:32:58.137Z,99434.97
2018-12-03T05:35:29.733Z,99439.54
2018-12-03T05:37:59.356Z,99431.41
2018-12-03T05:40:30.245Z,99433.21
2018-12-03T05:42:59.604Z,99429.69
2018-12-03T05:45:28.938Z,99416.23
2018-12-03T05:47:58.765Z,99418.02
2018-12-03T05:50:28.083Z,99425.95
2018-12-03T05:52:57.469Z,99418.44
2018-12-03T05:55:26.863Z,99423.59
2018-12-03T05:57:56.241Z,99423.59
2018-12-03T06:00:37.456Z,99420.42
2018-12-03T06:03:07.295Z,99425.41
2018-12-03T06:05:36.709Z,99425.62
2018-12-03T06:08:06.138Z,99419.28
2018-12-03T06:10:35.479Z,99418.12
2018-12-03T06:13:04.791Z,99418.30
2018-12-03T06:15:34.194Z,99426.81
2018-12-03T06:18:03.729Z,99421.67
2018-12-03T06:20:33.026Z,99420.70
2018-12-03T06:23:02.330Z,99425.27
2018-12-03T06:25:31.650Z,99421.91
2018-12-03T06:28:00.958Z,99419.14
2018-12-03T06:30:30.245Z,99423.11
2018-12-03T06:32:59.589Z,99415.38
2018-12-03T06:35:28.934Z,99421.91
2018-12-03T06:37:58.228Z,99423.71
2018-12-03T06:40:29.023Z,99420.75
2018-12-03T06:42:58.348Z,99428.61
2018-12-03T06:45:28.175Z,99418.71
2018-12-03T06:48:17.126Z,99424.27
2018-12-03T06:50:46.445Z,99426.23
2018-12-03T06:53:15.713Z,99425.84
2018-12-03T06:55:45.023Z,99423.87
2018-12-03T06:58:14.819Z,99444.28
2018-12-03T07:00:46.272Z,99439.54
2018-12-03T07:03:15.587Z,99436.57
2018-12-03T07:05:45.875Z,99444.09
2018-12-03T07:08:15.201Z,99441.09
2018-12-03T07:10:44.505Z,99446.45
2018-12-03T07:13:16.562Z,99444.11
2018-12-03T07:15:46.787Z,99438.42
2018-12-03T07:18:16.099Z,99449.45
2018-12-03T07:20:45.496Z,99443.20
2018-12-03T07:23:14.814Z,99449.45
2018-12-03T07:25:44.090Z,99451.87
2018-12-03T07:28:13.352Z,99454.66
2018-12-03T07:30:42.639Z,99468.31
2018-12-03T07:33:11.911Z,99470.84
2018-12-03T07:35:41.179Z,99473.53
2018-12-03T07:38:10.453Z,99477.84
2018-12-03T07:40:39.735Z,99487.09
2018-12-03T07:43:08.982Z,99494.98
2018-12-03T07:45:38.320Z,99501.89
2018-12-03T07:48:07.585Z,99493.91
2018-12-03T07:50:36.865Z,99501.22
2018-12-03T07:53:06.864Z,99501.78
2018-12-03T07:55:36.116Z,99507.27
2018-12-03T07:58:10.801Z,99499.15
2018-12-03T08:00:59.129Z,99504.45
2018-12-03T08:03:28.414Z,99503.46
2018-12-03T08:05:57.706Z,99507.40
2018-12-03T08:08:26.998Z,99504.02
2018-12-03T08:10:58.576Z,99505.59
2018-12-03T08:13:27.852Z,99503.23
2018-12-03T08:15:57.175Z,99511.00
2018-12-03T08:18:26.764Z,99507.84
2018-12-03T08:21:15.245Z,99513.63
2018-12-03T08:24:05.028Z,99520.56
2018-12-03T08:26:34.305Z,99526.34
2018-12-03T08:29:03.581Z,99524.70
2018-12-03T08:31:32.841Z,99535.97
2018-12-03T08:34:02.141Z,99533.75
2018-12-03T08:36:31.451Z,99529.40
2018-12-03T08:39:00.725Z,99535.14
2018-12-03T08:41:29.997Z,99532.59
2018-12-03T08:43:59.299Z,99536.94
2018-12-03T08:46:28.595Z,99534.58
2018-12-03T08:48:57.873Z,99522.32
2018-12-03T08:51:27.132Z,99535.80
2018-12-03T08:53:56.403Z,99530.00
2018-12-03T08:56:25.666Z,99537.33
2018-12-03T08:58:54.938Z,99536.69
2018-12-03T09:01:24.737Z,99538.69
2018-12-03T09:04:06.845Z,99539.44
2018-12-03T09:06:36.134Z,99547.98
2018-12-03T09:09:25.289Z,99550.95
2018-12-03T09:11:54.585Z,99553.73
2018-12-03T09:14:42.914Z,99551.59
2018-12-03T09:17:14.187Z,99547.23
2018-12-03T09:19:43.489Z,99551.23
2018-12-03T09:22:12.746Z,99551.87
2018-12-03T09:24:42.072Z,99544.16
2018-12-03T09:27:11.748Z,99548.97
2018-12-03T09:29:41.037Z,99541.74
2018-12-03T09:32:10.300Z,99541.02
2018-12-03T09:34:39.575Z,99540.04
2018-12-03T09:37:08.833Z,99537.84
2018-12-03T09:39:38.113Z,99538.03
2018-12-03T09:42:07.709Z,99534.84
2018-12-03T09:44:36.980Z,99538.23
2018-12-03T09:47:06.556Z,99548.95
2018-12-03T09:49:35.849Z,99549.75
2018-12-03T09:52:05.126Z,99552.37
2018-12-03T09:54:34.417Z,99549.48
2018-12-03T09:57:03.697Z,99547.08
2018-12-03T09:59:32.967Z,99545.02
2018-12-03T10:02:03.132Z,99550.82
2018-12-03T10:07:28.116Z,99545.28
2018-12-03T10:09:57.420Z,99549.80
2018-12-03T10:12:26.722Z,99553.12
2018-12-03T10:14:55.981Z,99544.77
2018-12-03T10:17:25.256Z,99550.09
2018-12-03T10:19:54.531Z,99556.22
2018-12-03T10:22:23.809Z,99547.06
2018-12-03T10:24:53.075Z,99554.18
2018-12-03T10:27:22.376Z,99547.41
2018-12-03T10:29:51.653Z,99544.84
2018-12-03T10:32:21.791Z,99549.73
2018-12-03T10:34:51.055Z,99552.67
2018-12-03T10:37:22.041Z,99545.94
2018-12-03T10:39:51.728Z,99554.44
2018-12-03T10:42:21.074Z,99553.80
2018-12-03T10:44:50.605Z,99559.75
2018-12-03T10:47:19.861Z,99552.55
2018-12-03T10:49:49.138Z,99544.37
2018-12-03T10:52:37.470Z,99549.09
2018-12-03T10:55:08.525Z,99555.62
2018-12-03T10:57:38.441Z,99549.44
2018-12-03T11:00:45.508Z,99558.16
2018-12-03T11:03:33.585Z,99557.95
2018-12-03T11:06:23.018Z,99570.20
2018-12-03T11:08:52.302Z,99576.47
2018-12-03T11:11:21.649Z,99559.97
2018-12-03T11:13:50.913Z,99567.07
2018-12-03T11:16:39.521Z,99557.72
2018-12-03T11:19:09.489Z,99566.44
2018-12-03T11:21:38.778Z,99560.47
2018-12-03T11:24:13.930Z,99565.80
2018-12-03T11:27:02.260Z,99572.14
2018-12-03T11:29:31.580Z,99569.38
2018-12-03T11:32:00.863Z,99573.73
2018-12-03T11:34:37.810Z,99573.56
2018-12-03T11:37:14.009Z,99566.48
2018-12-03T11:40:05.191Z,99563.57
2018-12-03T11:42:37.074Z,99565.79
2018-12-03T11:45:08.721Z,99573.73
2018-12-03T11:47:38.002Z,99566.37
2018-12-03T11:50:10.306Z,99568.79
2018-12-03T11:52:39.604Z,99566.59
2018-12-03T11:55:09.572Z,99564.98
2018-12-03T11:57:38.840Z,99563.41
2018-12-03T12:02:46.909Z,99564.55
2018-12-03T12:05:16.234Z,99561.99
2018-12-03T12:07:45.570Z,99558.00
2018-12-03T12:10:14.909Z,99552.84
2018-12-03T12:12:44.187Z,99550.06
2018-12-03T12:15:14.062Z,99549.84
2018-12-03T12:17:43.349Z,99550.01
2018-12-03T12:20:12.648Z,99551.39
2018-12-03T12:22:41.940Z,99563.73
2018-12-03T12:25:12.775Z,99554.09
2018-12-03T12:28:01.148Z,99559.66
2018-12-03T12:30:30.427Z,99560.46
2018-12-03T12:32:59.692Z,99555.50
2018-12-03T12:35:28.972Z,99560.82
2018-12-03T12:37:58.238Z,99559.63
2018-12-03T12:40:27.522Z,99563.02
2018-12-03T12:42:56.797Z,99560.48
2018-12-03T12:45:46.481Z,99559.70
2018-12-03T12:48:15.758Z,99549.70
2018-12-03T12:50:45.051Z,99547.45
2018-12-03T12:53:14.318Z,99550.45
2018-12-03T12:55:43.611Z,99550.47
2018-12-03T12:58:12.859Z,99554.77
2018-12-03T13:00:42.131Z,99554.26
2018-12-03T13:03:11.380Z,99553.52
2018-12-03T13:05:40.676Z,99553.12
2018-12-03T13:08:09.943Z,99552.71
2018-12-03T13:10:39.229Z,99553.53
2018-12-03T13:13:08.514Z,99565.64
2018-12-03T13:15:37.788Z,99556.72
2018-12-03T13:18:09.368Z,99566.44
2018-12-03T13:20:38.419Z,99568.81
2018-12-03T13:23:08.205Z,99561.06
2018-12-03T13:25:37.487Z,99562.70
2018-12-03T13:28:06.756Z,99563.50
2018-12-03T13:30:36.055Z,99560.06
2018-12-03T13:33:05.810Z,99553.52
2018-12-03T13:35:35.116Z,99555.65
2018-12-03T13:38:04.479Z,99552.28
2018-12-03T13:40:33.754Z,99538.41
2018-12-03T13:43:03.020Z,99543.34
2018-12-03T13:45:32.305Z,99542.52
2018-12-03T13:48:01.687Z,99539.70
2018-12-03T13:50:31.006Z,99545.67
2018-12-03T13:53:00.504Z,99546.26
2018-12-03T13:55:30.455Z,99536.36
2018-12-03T13:57:59.769Z,99535.73
2018-12-03T14:00:29.059Z,99537.17
2018-12-03T14:03:21.472Z,99531.61
2018-12-03T14:06:10.725Z,99535.13
2018-12-03T14:09:01.831Z,99549.71
2018-12-03T14:12:01.342Z,99551.91
2018-12-03T14:15:08.660Z,99558.21
2018-12-03T14:18:07.337Z,99558.63
2018-12-03T14:20:40.198Z,99564.16
2018-12-03T14:23:12.276Z,99563.07
2018-12-03T14:25:41.525Z,99566.14
2018-12-03T14:28:10.808Z,99572.20
2018-12-03T14:30:40.076Z,99572.75
2018-12-03T14:33:09.380Z,99564.80
2018-12-03T14:35:38.685Z,99571.88
2018-12-03T14:38:07.957Z,99565.69
2018-12-03T14:40:56.814Z,99568.27
2018-12-03T14:43:26.108Z,99567.82
2018-12-03T14:45:55.383Z,99562.41
2018-12-03T14:48:24.671Z,99558.80
2018-12-03T14:50:53.942Z,99556.58
2018-12-03T14:53:23.223Z,99563.45
2018-12-03T14:55:52.508Z,99561.23
2018-12-03T14:58:21.780Z,99557.63
2018-12-03T15:00:51.050Z,99554.81
2018-12-03T15:03:20.329Z,99561.33
2018-12-03T15:05:49.593Z,99556.91
2018-12-03T15:08:18.907Z,99563.62
2018-12-03T15:10:48.171Z,99565.17
2018-12-03T15:13:17.460Z,99559.63
2018-12-03T15:15:46.732Z,99570.71
2018-12-03T15:18:16.008Z,99570.48
2018-12-03T15:23:35.339Z,99569.33
2018-12-03T15:26:04.639Z,99569.33
2018-12-03T15:28:33.967Z,99569.91
2018-12-03T15:31:03.253Z,99554.88
2018-12-03T15:33:32.553Z,99563.78
2018-12-03T15:36:01.863Z,99558.02
2018-12-03T15:38:31.153Z,99560.02
2018-12-03T15:41:00.471Z,99561.59
2018-12-03T15:43:29.776Z,99567.09
2018-12-03T15:45:59.060Z,99565.30
2018-12-03T15:48:28.344Z,99562.69
2018-12-03T15:50:57.627Z,99566.22
2018-12-03T15:53:26.911Z,99564.19
2018-12-03T15:55:56.193Z,99567.05
2018-12-03T15:58:25.525Z,99565.47
2018-12-03T16:00:54.839Z,99573.98
2018-12-03T16:03:24.182Z,99571.21
2018-12-03T16:05:53.536Z,99568.25
2018-12-03T16:08:22.834Z,99569.98
2018-12-03T16:10:52.134Z,99574.75
2018-12-03T16:13:21.400Z,99574.11
2018-12-03T16:15:50.690Z,99577.68
2018-12-03T16:18:19.966Z,99579.27
2018-12-03T16:20:49.335Z,99572.18
2018-12-03T16:23:18.644Z,99573.98
2018-12-03T16:25:47.968Z,99567.63
2018-12-03T16:28:17.364Z,99572.02
2018-12-03T16:30:46.661Z,99571.80
2018-12-03T16:33:15.949Z,99575.59
2018-12-03T16:35:45.254Z,99577.17
2018-12-03T16:38:14.545Z,99585.06
2018-12-03T16:40:43.865Z,99583.91
2018-12-03T16:43:13.148Z,99592.38
2018-12-03T16:45:42.423Z,99591.58
2018-12-03T16:48:11.817Z,99598.50
2018-12-03T16:50:41.105Z,99598.66
2018-12-03T16:53:10.375Z,99601.81
2018-12-03T16:55:39.651Z,99601.23
2018-12-03T16:58:08.951Z,99601.01
2018-12-03T17:00:38.214Z,99596.27
2018-12-03T17:03:07.503Z,99602.39
2018-12-03T17:05:36.775Z,99605.77
2018-12-03T17:08:06.121Z,99605.16
2018-12-03T17:10:35.394Z,99612.31
2018-12-03T17:13:04.710Z,99606.36
2018-12-03T17:15:34.022Z,99618.24
2018-12-03T17:18:03.301Z,99616.86
2018-12-03T17:21:10.626Z,99617.05
2018-12-03T17:24:01.524Z,99619.25
2018-12-03T17:26:30.739Z,99616.59
2018-12-03T17:29:00.051Z,99612.59
2018-12-03T17:31:29.438Z,99610.63
2018-12-03T17:33:58.741Z,99611.59
2018-12-03T17:39:16.382Z,99603.60
2018-12-03T17:41:45.684Z,99598.34
2018-12-03T17:44:14.967Z,99602.94
2018-12-03T17:46:44.236Z,99600.27
2018-12-03T17:49:13.535Z,99601.31
2018-12-03T17:51:42.824Z,99606.77
2018-12-03T17:54:12.139Z,99603.47
2018-12-03T17:56:41.753Z,99598.82
2018-12-03T17:59:12.838Z,99589.98
2018-12-03T18:01:42.707Z,99592.42
2018-12-03T18:04:30.721Z,99595.89
2018-12-03T18:06:59.996Z,99591.84
2018-12-03T18:09:29.264Z,99587.97
2018-12-03T18:12:01.792Z,99590.66
2018-12-03T18:14:31.072Z,99592.16
2018-12-03T18:17:00.508Z,99587.10
2018-12-03T18:19:29.958Z,99602.06
2018-12-03T18:21:59.251Z,99596.63
2018-12-03T18:24:28.656Z,99608.02
2018-12-03T18:26:58.080Z,99609.92
2018-12-03T18:29:27.558Z,99609.68
2018-12-03T18:31:56.883Z,99610.20
2018-12-03T18:34:26.184Z,99620.86
2018-12-03T18:36:55.474Z,99615.67
2018-12-03T18:39:24.768Z,99615.23
2018-12-03T18:41:54.212Z,99608.92
2018-12-03T18:44:23.511Z,99603.54
2018-12-03T18:46:52.817Z,99600.34
2018-12-03T18:49:43.707Z,99599.34
2018-12-03T18:52:14.087Z,99595.53
2018-12-03T18:54:43.387Z,99588.56
2018-12-03T18:57:12.730Z,99589.52
2018-12-03T18:59:42.020Z,99585.52
2018-12-03T19:02:11.518Z,99579.55
2018-12-03T19:04:40.872Z,99581.13
2018-12-03T19:07:10.168Z,99587.38
2018-12-03T19:09:39.546Z,99584.41
2018-12-03T19:12:08.886Z,99589.14
2018-12-03T19:17:26.928Z,99584.31
2018-12-03T19:19:56.196Z,99583.61
2018-12-03T19:22:25.501Z,99578.77
2018-12-03T19:24:55.550Z,99574.66
2018-12-03T19:27:24.942Z,99570.91
2018-12-03T19:29:57.345Z,99573.95
2018-12-03T19:32:26.731Z,99581.17
2018-12-03T19:34:56.800Z,99571.06
2018-12-03T19:37:26.167Z,99577.36
2018-12-03T19:39:55.503Z,99575.32
2018-12-03T19:42:24.924Z,99583.58
2018-12-03T19:44:54.229Z,99589.87
2018-12-03T19:47:23.839Z,99588.84
2018-12-03T19:49:53.171Z,99583.48
2018-12-03T19:52:22.609Z,99582.45
2018-12-03T19:54:53.994Z,99582.25
2018-12-03T19:57:30.060Z,99580.06
2018-12-03T20:00:01.070Z,99578.25
2018-12-03T20:02:29.619Z,99587.89
2018-12-03T20:05:17.630Z,99597.34
2018-12-03T20:07:47.014Z,99590.80
2018-12-03T20:10:16.317Z,99584.89
2018-12-03T20:12:45.617Z,99578.62
2018-12-03T20:15:14.952Z,99576.29
2018-12-03T20:17:44.582Z,99584.64
2018-12-03T20:20:16.991Z,99578.53
2018-12-03T20:23:24.360Z,99570.42
2018-12-03T20:26:16.787Z,99574.80
2018-12-03T20:28:52.249Z,99580.34
2018-12-03T20:31:44.257Z,99577.77
2018-12-03T20:34:35.375Z,99571.61
2018-12-03T20:37:42.702Z,99573.52
2018-12-03T20:40:24.141Z,99578.40
2018-12-03T20:42:58.279Z,99594.58
2018-12-03T20:46:05.602Z,99583.61
2018-12-03T20:48:42.948Z,99595.63
2018-12-03T20:51:18.649Z,99586.98
2018-12-03T20:53:49.548Z,99588.09
2018-12-03T20:56:19.025Z,99594.34
2018-12-03T20:58:48.340Z,99600.91
2018-12-03T21:01:17.615Z,99604.45
2018-12-03T21:03:46.871Z,99604.45
2018-12-03T21:06:16.150Z,99609.70
2018-12-03T21:08:45.436Z,99613.09
2018-12-03T21:11:14.761Z,99617.09
2018-12-03T21:13:44.025Z,99615.14
2018-12-03T21:16:13.338Z,99618.28
2018-12-03T21:18:42.725Z,99618.10
2018-12-03T21:21:12.846Z,99619.86
2018-12-03T21:23:42.236Z,99618.86
2018-12-03T21:26:11.528Z,99616.47
2018-12-03T21:28:40.947Z,99631.41
2018-12-03T21:31:10.225Z,99638.62
2018-12-03T21:33:39.501Z,99654.62
2018-12-03T21:36:08.796Z,99655.38
2018-12-03T21:38:38.092Z,99669.86
2018-12-03T21:41:07.422Z,99667.66
2018-12-03T21:43:36.762Z,99683.08
2018-12-03T21:46:06.056Z,99687.23
2018-12-03T21:48:35.339Z,99691.31
2018-12-03T21:51:04.635Z,99701.94
2018-12-03T21:53:33.930Z,99704.53
2018-12-03T21:56:03.224Z,99716.83
2018-12-03T21:58:32.557Z,99725.26
2018-12-03T22:01:01.827Z,99730.71
2018-12-03T22:03:31.117Z,99737.95
2018-12-03T22:06:00.461Z,99746.97
2018-12-03T22:08:29.803Z,99757.58
2018-12-03T22:10:59.062Z,99768.94
2018-12-03T22:13:28.398Z,99773.98
2018-12-03T22:15:57.710Z,99785.70
2018-12-03T22:18:27.046Z,99785.61
2018-12-03T22:20:56.329Z,99801.89
2018-12-03T22:23:25.647Z,99805.82
2018-12-03T22:25:54.946Z,99815.30
2018-12-03T22:28:24.228Z,99816.11
2018-12-03T22:30:53.537Z,99817.73
2018-12-03T22:33:22.811Z,99832.33
2018-12-03T22:35:52.087Z,99831.16
2018-12-03T22:38:21.376Z,99843.84
2018-12-03T22:40:50.676Z,99845.22
2018-12-03T22:43:19.977Z,99851.07
2018-12-03T22:45:49.324Z,99864.30
2018-12-03T22:48:18.739Z,99870.53
2018-12-03T22:50:48.117Z,99878.45
2018-12-03T22:53:17.477Z,99880.96
2018-12-03T22:55:46.842Z,99885.55
2018-12-03T22:58:16.231Z,99886.61
2018-12-03T23:03:46.302Z,99897.02
2018-12-03T23:06:15.690Z,99887.60
2018-12-03T23:08:45.007Z,99902.98
2018-12-03T23:11:14.315Z,99905.89
2018-12-03T23:13:43.598Z,99911.27
2018-12-03T23:16:12.860Z,99918.88
2018-12-03T23:18:42.129Z,99919.80
2018-12-03T23:21:11.403Z,99923.60
2018-12-03T23:23:40.705Z,99937.64
2018-12-03T23:26:09.971Z,99931.87
2018-12-03T23:28:39.247Z,99936.83
2018-12-03T23:31:08.513Z,99942.10
2018-12-03T23:33:37.799Z,99940.51
2018-12-03T23:36:07.082Z,99947.41
2018-12-03T23:38:36.344Z,99955.80
2018-12-03T23:41:05.605Z,99966.45
2018-12-03T23:43:34.877Z,99968.66
2018-12-03T23:46:04.145Z,99959.92
2018-12-03T23:48:33.412Z,99962.69
2018-12-03T23:51:02.843Z,99968.20
2018-12-03T23:53:32.132Z,99973.06
2018-12-03T23:56:01.402Z,99976.50
2018-12-03T23:58:30.678Z,99985.80
